createdAt,value
2023-05-14T00:00:01.864Z,242.14
2023-05-14T00:01:01.888Z,244.50
2023-05-14T00:02:01.958Z,243.87
2023-05-14T00:03:01.919Z,244.33
2023-05-14T00:04:01.889Z,245.02
2023-05-14T00:05:01.812Z,245.65
2023-05-14T00:06:01.803Z,247.06
2023-05-14T00:07:01.772Z,247.03
2023-05-14T00:08:01.788Z,247.21
2023-05-14T00:09:01.760Z,247.98
2023-05-14T00:10:01.760Z,248.70
2023-05-14T00:11:01.725Z,247.88
2023-05-14T00:12:01.689Z,247.67
2023-05-14T00:13:01.694Z,247.33
2023-05-14T00:14:01.677Z,248.35
2023-05-14T00:15:01.668Z,247.61
2023-05-14T00:16:01.687Z,247.62
2023-05-14T00:17:01.663Z,248.22
2023-05-14T00:18:01.731Z,248.94
2023-05-14T00:19:01.660Z,249.43
2023-05-14T00:20:01.629Z,249.28
2023-05-14T00:21:01.568Z,250.00
2023-05-14T00:22:01.582Z,249.41
2023-05-14T00:23:01.537Z,249.11
2023-05-14T00:24:01.583Z,249.33
2023-05-14T00:25:01.541Z,249.34
2023-05-14T00:26:01.526Z,247.53
2023-05-14T00:27:01.538Z,247.40
2023-05-14T00:28:01.556Z,247.68
2023-05-14T00:29:01.594Z,245.67
2023-05-14T00:30:01.612Z,246.20
2023-05-14T00:31:01.645Z,247.67
2023-05-14T00:32:01.666Z,247.33
2023-05-14T00:33:01.833Z,246.40
2023-05-14T00:34:01.736Z,245.51
2023-05-14T00:35:01.753Z,244.25
2023-05-14T00:36:01.812Z,245.25
2023-05-14T00:37:01.827Z,244.49
2023-05-14T00:38:01.851Z,244.80
2023-05-14T00:39:01.921Z,244.71
2023-05-14T00:40:01.956Z,246.21
2023-05-14T00:41:01.957Z,247.03
2023-05-14T00:42:02.025Z,246.15
2023-05-14T00:43:02.045Z,246.52
2023-05-14T00:44:02.054Z,245.86
2023-05-14T00:45:02.100Z,245.98
2023-05-14T00:46:02.148Z,244.22
2023-05-14T00:47:02.413Z,243.14
2023-05-14T00:48:02.220Z,244.37
2023-05-14T00:49:02.266Z,245.39
2023-05-14T00:50:02.273Z,244.93
2023-05-14T00:51:02.289Z,245.11
2023-05-14T00:52:02.321Z,244.54
2023-05-14T00:53:02.336Z,244.45
2023-05-14T00:54:02.368Z,244.39
2023-05-14T00:55:02.416Z,243.97
2023-05-14T00:56:02.419Z,242.73
2023-05-14T00:57:02.489Z,240.84
2023-05-14T00:58:02.539Z,240.94
2023-05-14T00:59:02.544Z,240.90
2023-05-14T01:00:02.578Z,240.76
2023-05-14T01:01:02.677Z,239.55
2023-05-14T01:02:02.663Z,239.36
2023-05-14T01:03:02.730Z,240.03
2023-05-14T01:04:02.809Z,238.73
2023-05-14T01:05:02.747Z,238.57
2023-05-14T01:06:02.794Z,237.19
2023-05-14T01:07:02.818Z,236.41
2023-05-14T01:08:02.866Z,235.77
2023-05-14T01:09:02.911Z,234.93
2023-05-14T01:10:02.975Z,234.11
2023-05-14T01:11:02.974Z,236.20
2023-05-14T01:12:03.005Z,234.76
2023-05-14T01:13:03.028Z,234.91
2023-05-14T01:14:03.093Z,235.87
2023-05-14T01:15:03.126Z,234.83
2023-05-14T01:16:03.234Z,233.66
2023-05-14T01:17:03.207Z,233.46
2023-05-14T01:18:03.241Z,232.73
2023-05-14T01:19:03.281Z,232.12
2023-05-14T01:20:03.263Z,231.00
2023-05-14T01:21:03.333Z,231.16
2023-05-14T01:22:03.376Z,231.36
2023-05-14T01:23:03.395Z,231.08
2023-05-14T01:24:03.409Z,230.12
2023-05-14T01:25:03.447Z,231.27
2023-05-14T01:26:03.493Z,230.81
2023-05-14T01:27:03.508Z,227.01
2023-05-14T01:28:03.576Z,227.70
2023-05-14T01:29:03.607Z,231.64
2023-05-14T01:30:03.638Z,230.14
2023-05-14T01:31:03.683Z,230.42
2023-05-14T01:32:03.810Z,231.64
2023-05-14T01:33:03.784Z,231.93
2023-05-14T01:34:03.763Z,231.25
2023-05-14T01:35:03.784Z,232.53
2023-05-14T01:36:03.823Z,233.15
2023-05-14T01:37:03.885Z,234.35
2023-05-14T01:38:03.896Z,234.56
2023-05-14T01:39:03.926Z,235.11
2023-05-14T01:40:03.949Z,235.75
2023-05-14T01:41:04.035Z,236.38
2023-05-14T01:42:04.031Z,237.41
2023-05-14T01:43:04.120Z,238.10
2023-05-14T01:44:04.091Z,237.31
2023-05-14T01:45:04.136Z,237.33
2023-05-14T01:46:04.220Z,239.12
2023-05-14T01:47:04.223Z,239.59
2023-05-14T01:48:04.267Z,238.74
2023-05-14T01:49:04.269Z,239.21
2023-05-14T01:50:04.315Z,240.35
2023-05-14T01:51:04.341Z,241.05
2023-05-14T01:52:04.389Z,241.28
2023-05-14T01:53:04.412Z,240.23
2023-05-14T01:54:04.445Z,240.92
2023-05-14T01:55:04.440Z,239.48
2023-05-14T01:56:04.505Z,239.36
2023-05-14T01:57:04.533Z,238.82
2023-05-14T01:58:04.577Z,239.38
2023-05-14T01:59:04.606Z,238.41
2023-05-14T02:00:04.677Z,238.66
2023-05-14T02:01:04.719Z,238.34
2023-05-14T02:02:04.710Z,237.48
2023-05-14T02:03:04.764Z,237.73
2023-05-14T02:04:04.864Z,237.38
2023-05-14T02:05:06.954Z,238.14
2023-05-14T02:06:04.830Z,238.09
2023-05-14T02:07:04.835Z,238.01
2023-05-14T02:08:04.889Z,238.19
2023-05-14T02:09:04.925Z,238.00
2023-05-14T02:10:04.950Z,239.06
2023-05-14T02:11:04.967Z,239.09
2023-05-14T02:12:05.017Z,238.57
2023-05-14T02:13:05.054Z,239.19
2023-05-14T02:14:05.100Z,238.44
2023-05-14T02:15:05.102Z,239.82
2023-05-14T02:16:05.212Z,240.21
2023-05-14T02:17:05.181Z,239.66
2023-05-14T02:18:05.274Z,240.25
2023-05-14T02:19:05.361Z,241.01
2023-05-14T02:20:05.289Z,241.41
2023-05-14T02:21:05.319Z,242.10
2023-05-14T02:22:05.383Z,242.69
2023-05-14T02:23:05.404Z,241.86
2023-05-14T02:24:05.447Z,242.58
2023-05-14T02:25:05.508Z,242.74
2023-05-14T02:26:05.506Z,242.17
2023-05-14T02:27:05.546Z,242.74
2023-05-14T02:28:05.590Z,242.88
2023-05-14T02:29:05.636Z,243.69
2023-05-14T02:30:05.662Z,242.91
2023-05-14T02:31:05.766Z,242.60
2023-05-14T02:32:05.763Z,244.63
2023-05-14T02:33:05.818Z,243.90
2023-05-14T02:34:05.792Z,244.24
2023-05-14T02:35:05.824Z,243.76
2023-05-14T02:36:05.826Z,244.62
2023-05-14T02:37:05.897Z,244.69
2023-05-14T02:38:05.906Z,245.78
2023-05-14T02:39:06.759Z,244.88
2023-05-14T02:40:05.964Z,244.72
2023-05-14T02:41:05.995Z,244.36
2023-05-14T02:42:06.056Z,244.46
2023-05-14T02:43:06.076Z,244.31
2023-05-14T02:44:06.098Z,244.28
2023-05-14T02:45:06.139Z,243.61
2023-05-14T02:46:06.161Z,243.04
2023-05-14T02:47:06.235Z,243.03
2023-05-14T02:48:06.364Z,241.68
2023-05-14T02:49:06.258Z,240.98
2023-05-14T02:50:06.279Z,239.66
2023-05-14T02:51:06.315Z,240.56
2023-05-14T02:52:06.307Z,237.33
2023-05-14T02:53:06.383Z,236.62
2023-05-14T02:54:06.432Z,236.72
2023-05-14T02:55:06.449Z,237.13
2023-05-14T02:56:06.420Z,237.83
2023-05-14T02:57:06.478Z,237.49
2023-05-14T02:58:06.485Z,237.94
2023-05-14T02:59:06.523Z,235.99
2023-05-14T03:00:06.593Z,235.37
2023-05-14T03:01:06.631Z,236.20
2023-05-14T03:02:06.648Z,234.80
2023-05-14T03:03:06.694Z,236.05
2023-05-14T03:04:06.702Z,235.08
2023-05-14T03:05:06.708Z,234.01
2023-05-14T03:06:06.738Z,235.26
2023-05-14T03:07:06.763Z,234.45
2023-05-14T03:08:06.816Z,233.07
2023-05-14T03:09:06.811Z,233.36
2023-05-14T03:10:06.873Z,234.40
2023-05-14T03:11:06.938Z,235.14
2023-05-14T03:12:06.954Z,234.56
2023-05-14T03:13:06.969Z,234.04
2023-05-14T03:14:07.018Z,232.09
2023-05-14T03:15:07.047Z,230.65
2023-05-14T03:16:07.069Z,231.48
2023-05-14T03:17:07.208Z,230.85
2023-05-14T03:18:07.182Z,232.82
2023-05-14T03:19:07.243Z,231.88
2023-05-14T03:20:07.186Z,232.29
2023-05-14T03:21:07.246Z,232.67
2023-05-14T03:22:07.247Z,233.07
2023-05-14T03:23:07.294Z,230.72
2023-05-14T03:24:07.365Z,233.38
2023-05-14T03:25:07.394Z,233.57
2023-05-14T03:26:07.451Z,232.58
2023-05-14T03:27:07.479Z,231.77
2023-05-14T03:28:07.493Z,231.95
2023-05-14T03:29:07.532Z,231.88
2023-05-14T03:30:07.543Z,231.99
2023-05-14T03:31:07.610Z,231.49
2023-05-14T03:32:07.629Z,231.28
2023-05-14T03:33:07.682Z,229.74
2023-05-14T03:34:07.716Z,228.76
2023-05-14T03:35:07.745Z,229.02
2023-05-14T03:36:07.774Z,228.68
2023-05-14T03:37:07.888Z,228.33
2023-05-14T03:38:07.827Z,228.67
2023-05-14T03:39:07.868Z,229.43
2023-05-14T03:40:07.917Z,229.86
2023-05-14T03:41:07.970Z,229.94
2023-05-14T03:42:07.943Z,230.64
2023-05-14T03:43:08.020Z,230.82
2023-05-14T03:44:08.026Z,230.74
2023-05-14T03:45:08.089Z,230.19
2023-05-14T03:46:08.094Z,230.92
2023-05-14T03:47:08.119Z,229.80
2023-05-14T03:48:08.363Z,229.58
2023-05-14T03:49:08.281Z,228.16
2023-05-14T03:50:08.224Z,227.88
2023-05-14T03:51:08.240Z,228.54
2023-05-14T03:52:08.263Z,230.17
2023-05-14T03:53:08.344Z,230.42
2023-05-14T03:54:08.387Z,230.96
2023-05-14T03:55:08.399Z,230.55
2023-05-14T03:56:08.424Z,228.96
2023-05-14T03:57:08.440Z,231.09
2023-05-14T03:58:08.507Z,231.17
2023-05-14T03:59:08.537Z,232.50
2023-05-14T04:00:08.530Z,234.55
2023-05-14T04:01:08.601Z,234.59
2023-05-14T04:02:08.584Z,234.21
2023-05-14T04:03:08.734Z,233.49
2023-05-14T04:04:08.736Z,233.21
2023-05-14T04:05:08.731Z,234.75
2023-05-14T04:06:08.718Z,234.10
2023-05-14T04:07:08.774Z,234.09
2023-05-14T04:08:08.788Z,234.14
2023-05-14T04:09:08.852Z,234.29
2023-05-14T04:10:08.851Z,234.42
2023-05-14T04:11:08.882Z,234.47
2023-05-14T04:12:08.890Z,235.58
2023-05-14T04:13:08.917Z,235.37
2023-05-14T04:14:08.938Z,235.79
2023-05-14T04:15:08.971Z,234.68
2023-05-14T04:16:09.023Z,235.14
2023-05-14T04:17:09.038Z,234.71
2023-05-14T04:18:09.115Z,234.36
2023-05-14T04:19:09.161Z,235.12
2023-05-14T04:20:09.160Z,234.62
2023-05-14T04:21:09.173Z,235.08
2023-05-14T04:22:09.219Z,234.92
2023-05-14T04:23:09.256Z,235.45
2023-05-14T04:24:09.246Z,234.73
2023-05-14T04:25:09.278Z,233.56
2023-05-14T04:26:09.288Z,233.65
2023-05-14T04:27:09.306Z,233.25
2023-05-14T04:28:09.321Z,232.76
2023-05-14T04:29:09.364Z,232.74
2023-05-14T04:30:09.362Z,232.41
2023-05-14T04:31:09.440Z,232.12
2023-05-14T04:32:09.450Z,231.51
2023-05-14T04:33:09.599Z,231.22
2023-05-14T04:34:09.514Z,230.76
2023-05-14T04:35:09.528Z,231.43
2023-05-14T04:36:09.543Z,230.64
2023-05-14T04:37:09.601Z,232.23
2023-05-14T04:38:09.596Z,231.33
2023-05-14T04:39:09.678Z,231.37
2023-05-14T04:40:09.704Z,231.25
2023-05-14T04:41:09.780Z,231.59
2023-05-14T04:42:09.752Z,231.89
2023-05-14T04:43:09.817Z,231.44
2023-05-14T04:44:09.850Z,231.89
2023-05-14T04:45:09.892Z,230.54
2023-05-14T04:46:09.926Z,231.00
2023-05-14T04:47:09.934Z,229.33
2023-05-14T04:48:09.978Z,230.23
2023-05-14T04:49:09.977Z,230.39
2023-05-14T04:50:10.096Z,231.25
2023-05-14T04:51:10.046Z,231.42
2023-05-14T04:52:10.085Z,231.07
2023-05-14T04:53:10.108Z,229.81
2023-05-14T04:54:10.164Z,227.78
2023-05-14T04:55:10.165Z,227.68
2023-05-14T04:56:10.218Z,228.07
2023-05-14T04:57:10.262Z,224.37
2023-05-14T04:58:10.263Z,223.52
2023-05-14T04:59:10.319Z,222.68
2023-05-14T05:00:10.350Z,222.27
2023-05-14T05:01:10.423Z,223.19
2023-05-14T05:02:10.412Z,224.31
2023-05-14T05:03:10.497Z,225.35
2023-05-14T05:04:10.606Z,225.97
2023-05-14T05:05:10.518Z,226.71
2023-05-14T05:06:10.514Z,224.07
2023-05-14T05:07:10.549Z,222.94
2023-05-14T05:08:10.591Z,222.63
2023-05-14T05:09:10.638Z,222.86
2023-05-14T05:10:10.638Z,222.86
2023-05-14T05:11:10.673Z,222.80
2023-05-14T05:12:10.731Z,221.76
2023-05-14T05:13:10.760Z,220.55
2023-05-14T05:14:10.856Z,222.63
2023-05-14T05:15:10.845Z,223.41
2023-05-14T05:16:10.956Z,223.61
2023-05-14T05:17:10.906Z,222.19
2023-05-14T05:18:10.964Z,223.42
2023-05-14T05:19:11.065Z,221.08
2023-05-14T05:20:11.052Z,222.63
2023-05-14T05:21:11.095Z,223.02
2023-05-14T05:22:11.110Z,222.34
2023-05-14T05:23:11.152Z,222.85
2023-05-14T05:24:11.260Z,222.53
2023-05-14T05:25:11.223Z,224.00
2023-05-14T05:26:11.277Z,225.47
2023-05-14T05:27:11.283Z,226.09
2023-05-14T05:28:11.357Z,226.86
2023-05-14T05:29:11.398Z,227.29
2023-05-14T05:30:11.400Z,225.48
2023-05-14T05:31:11.497Z,227.08
2023-05-14T05:32:11.489Z,227.53
2023-05-14T05:33:11.558Z,228.02
2023-05-14T05:34:11.568Z,226.00
2023-05-14T05:35:11.577Z,226.98
2023-05-14T05:36:11.648Z,226.17
2023-05-14T05:37:11.645Z,224.80
2023-05-14T05:38:11.666Z,223.00
2023-05-14T05:39:11.735Z,220.86
2023-05-14T05:40:11.792Z,219.78
2023-05-14T05:41:11.809Z,221.69
2023-05-14T05:42:11.824Z,221.77
2023-05-14T05:43:11.905Z,222.43
2023-05-14T05:44:11.928Z,221.11
2023-05-14T05:45:11.982Z,222.79
2023-05-14T05:46:12.072Z,223.16
2023-05-14T05:47:12.030Z,221.54
2023-05-14T05:48:12.050Z,219.48
2023-05-14T05:49:12.095Z,218.58
2023-05-14T05:50:12.149Z,220.43
2023-05-14T05:51:12.176Z,220.93
2023-05-14T05:52:12.822Z,220.60
2023-05-14T05:53:12.234Z,219.05
2023-05-14T05:54:12.281Z,219.31
2023-05-14T05:55:12.328Z,217.69
2023-05-14T05:56:12.366Z,218.70
2023-05-14T05:57:12.407Z,218.77
2023-05-14T05:58:12.432Z,220.70
2023-05-14T05:59:12.497Z,218.64
2023-05-14T06:00:12.530Z,218.64
2023-05-14T06:01:12.539Z,218.46
2023-05-14T06:02:12.663Z,218.33
2023-05-14T06:03:12.630Z,218.91
2023-05-14T06:04:12.682Z,218.72
2023-05-14T06:05:12.755Z,219.50
2023-05-14T06:06:12.784Z,219.85
2023-05-14T06:07:12.801Z,219.11
2023-05-14T06:08:12.878Z,219.68
2023-05-14T06:09:12.903Z,220.09
2023-05-14T06:10:12.908Z,220.55
2023-05-14T06:11:12.943Z,221.00
2023-05-14T06:12:13.007Z,220.64
2023-05-14T06:13:13.034Z,219.08
2023-05-14T06:14:13.074Z,219.80
2023-05-14T06:15:13.116Z,219.19
2023-05-14T06:16:13.178Z,219.10
2023-05-14T06:17:13.227Z,219.98
2023-05-14T06:18:13.204Z,220.80
2023-05-14T06:19:13.367Z,220.21
2023-05-14T06:20:13.306Z,218.56
2023-05-14T06:21:13.375Z,218.04
2023-05-14T06:22:13.400Z,218.45
2023-05-14T06:23:13.460Z,216.80
2023-05-14T06:24:13.460Z,216.72
2023-05-14T06:25:13.480Z,212.72
2023-05-14T06:26:13.566Z,209.97
2023-05-14T06:27:13.625Z,210.68
2023-05-14T06:28:13.624Z,210.14
2023-05-14T06:29:13.641Z,210.43
2023-05-14T06:30:13.691Z,209.63
2023-05-14T06:31:13.720Z,209.82
2023-05-14T06:32:13.862Z,206.29
2023-05-14T06:33:13.776Z,204.40
2023-05-14T06:34:13.846Z,201.89
2023-05-14T06:35:13.871Z,201.95
2023-05-14T06:36:13.893Z,198.16
2023-05-14T06:37:13.948Z,197.14
2023-05-14T06:38:13.988Z,197.72
2023-05-14T06:39:14.029Z,200.86
2023-05-14T06:40:14.082Z,203.68
2023-05-14T06:41:14.083Z,205.33
2023-05-14T06:42:14.158Z,207.25
2023-05-14T06:43:14.160Z,206.07
2023-05-14T06:44:14.186Z,204.71
2023-05-14T06:45:14.246Z,207.23
2023-05-14T06:46:14.286Z,207.16
2023-05-14T06:47:14.286Z,208.14
2023-05-14T06:48:14.399Z,208.22
2023-05-14T06:49:14.454Z,205.83
2023-05-14T06:50:14.412Z,206.59
2023-05-14T06:51:14.424Z,205.21
2023-05-14T06:52:14.475Z,204.82
2023-05-14T06:53:14.484Z,204.22
2023-05-14T06:54:14.495Z,204.53
2023-05-14T06:55:14.553Z,205.81
2023-05-14T06:56:14.573Z,207.45
2023-05-14T06:57:14.623Z,205.59
2023-05-14T06:58:14.678Z,205.49
2023-05-14T06:59:14.677Z,203.97
2023-05-14T07:00:14.699Z,203.05
2023-05-14T07:01:14.746Z,202.19
2023-05-14T07:02:14.726Z,203.06
2023-05-14T07:03:14.763Z,203.20
2023-05-14T07:04:14.885Z,204.24
2023-05-14T07:05:14.863Z,207.48
2023-05-14T07:06:14.889Z,207.51
2023-05-14T07:07:14.899Z,206.80
2023-05-14T07:08:14.918Z,207.50
2023-05-14T07:09:14.936Z,205.48
2023-05-14T07:10:14.977Z,201.77
2023-05-14T07:11:15.032Z,199.97
2023-05-14T07:12:15.036Z,198.25
2023-05-14T07:13:15.052Z,200.44
2023-05-14T07:14:15.062Z,200.44
2023-05-14T07:15:15.107Z,199.92
2023-05-14T07:16:15.142Z,194.39
2023-05-14T07:17:15.241Z,192.10
2023-05-14T07:18:15.273Z,189.73
2023-05-14T07:19:15.401Z,193.10
2023-05-14T07:20:15.261Z,196.57
2023-05-14T07:21:15.294Z,197.29
2023-05-14T07:22:15.349Z,198.96
2023-05-14T07:23:15.810Z,201.51
2023-05-14T07:24:15.380Z,200.55
2023-05-14T07:25:15.395Z,201.10
2023-05-14T07:26:15.407Z,201.86
2023-05-14T07:27:15.466Z,201.73
2023-05-14T07:28:15.451Z,201.51
2023-05-14T07:29:15.530Z,202.46
2023-05-14T07:30:15.557Z,200.55
2023-05-14T07:31:15.586Z,201.77
2023-05-14T07:32:15.850Z,203.16
2023-05-14T07:33:15.588Z,203.69
2023-05-14T07:34:15.659Z,205.71
2023-05-14T07:35:15.646Z,205.17
2023-05-14T07:36:16.358Z,206.16
2023-05-14T07:37:15.688Z,205.62
2023-05-14T07:38:15.721Z,203.67
2023-05-14T07:39:15.765Z,202.86
2023-05-14T07:40:15.751Z,200.40
2023-05-14T07:41:15.797Z,199.23
2023-05-14T07:42:28.032Z,200.84
2023-05-14T07:43:16.769Z,200.93
2023-05-14T07:44:15.745Z,201.04
2023-05-14T07:45:15.723Z,202.00
2023-05-14T07:46:15.743Z,203.70
2023-05-14T07:47:15.721Z,206.47
2023-05-14T07:48:15.802Z,206.35
2023-05-14T07:49:15.666Z,205.37
2023-05-14T07:50:15.663Z,203.14
2023-05-14T07:51:15.723Z,202.34
2023-05-14T07:52:15.653Z,204.08
2023-05-14T07:53:15.655Z,203.89
2023-05-14T07:54:15.591Z,205.78
2023-05-14T07:55:15.630Z,205.38
2023-05-14T07:56:15.642Z,205.12
2023-05-14T07:57:15.603Z,205.28
2023-05-14T07:58:15.556Z,206.58
2023-05-14T07:59:15.539Z,206.96
2023-05-14T08:00:15.516Z,207.68
2023-05-14T08:01:15.532Z,206.93
2023-05-14T08:02:15.672Z,201.69
2023-05-14T08:03:15.710Z,197.87
2023-05-14T08:04:15.650Z,199.07
2023-05-14T08:05:15.632Z,200.14
2023-05-14T08:06:15.649Z,204.79
2023-05-14T08:07:15.646Z,207.78
2023-05-14T08:08:15.661Z,208.31
2023-05-14T08:09:15.682Z,207.89
2023-05-14T08:10:15.668Z,206.80
2023-05-14T08:11:15.789Z,208.60
2023-05-14T08:12:15.717Z,204.08
2023-05-14T08:13:15.719Z,200.92
2023-05-14T08:14:15.728Z,197.98
2023-05-14T08:15:15.784Z,200.38
2023-05-14T08:16:15.852Z,200.52
2023-05-14T08:17:15.946Z,202.84
2023-05-14T08:18:15.841Z,203.42
2023-05-14T08:19:15.871Z,198.98
2023-05-14T08:20:15.875Z,196.72
2023-05-14T08:21:15.875Z,198.24
2023-05-14T08:22:15.918Z,200.92
2023-05-14T08:23:15.914Z,199.97
2023-05-14T08:24:15.938Z,198.41
2023-05-14T08:25:15.978Z,195.05
2023-05-14T08:26:15.973Z,196.87
2023-05-14T08:27:15.960Z,198.26
2023-05-14T08:28:16.008Z,201.08
2023-05-14T08:29:16.707Z,202.15
2023-05-14T08:30:16.033Z,202.91
2023-05-14T08:31:16.078Z,202.02
2023-05-14T08:32:23.458Z,198.47
2023-05-14T08:33:17.102Z,198.49
2023-05-14T08:34:15.997Z,197.78
2023-05-14T08:35:15.988Z,198.78
2023-05-14T08:36:15.991Z,198.92
2023-05-14T08:37:15.959Z,200.62
2023-05-14T08:38:15.949Z,197.90
2023-05-14T08:39:15.958Z,198.06
2023-05-14T08:40:15.931Z,195.57
2023-05-14T08:41:15.915Z,197.00
2023-05-14T08:42:15.897Z,189.43
2023-05-14T08:43:15.891Z,177.40
2023-05-14T08:44:15.880Z,174.95
2023-05-14T08:45:15.845Z,179.23
2023-05-14T08:46:15.881Z,178.08
2023-05-14T08:47:15.833Z,178.04
2023-05-14T08:48:15.926Z,179.12
2023-05-14T08:49:15.823Z,176.24
2023-05-14T08:50:15.806Z,176.31
2023-05-14T08:51:15.783Z,171.70
2023-05-14T08:52:15.815Z,173.02
2023-05-14T08:53:15.751Z,177.71
2023-05-14T08:54:15.737Z,178.72
2023-05-14T08:55:15.714Z,180.46
2023-05-14T08:56:15.690Z,179.07
2023-05-14T08:57:15.683Z,176.24
2023-05-14T08:58:15.676Z,176.99
2023-05-14T08:59:15.725Z,173.69
2023-05-14T09:00:15.707Z,172.54
2023-05-14T09:01:15.772Z,171.32
2023-05-14T09:02:15.737Z,171.27
2023-05-14T09:03:15.902Z,169.38
2023-05-14T09:04:15.805Z,167.92
2023-05-14T09:05:15.742Z,168.09
2023-05-14T09:06:15.753Z,169.88
2023-05-14T09:07:15.760Z,169.59
2023-05-14T09:08:15.749Z,169.89
2023-05-14T09:09:15.779Z,168.95
2023-05-14T09:10:15.792Z,170.72
2023-05-14T09:11:15.786Z,164.57
2023-05-14T09:12:15.806Z,159.19
2023-05-14T09:13:15.807Z,160.69
2023-05-14T09:14:15.796Z,160.06
2023-05-14T09:15:15.791Z,158.80
2023-05-14T09:16:15.853Z,151.72
2023-05-14T09:17:15.841Z,153.11
2023-05-14T09:18:15.875Z,155.25
2023-05-14T09:19:16.207Z,153.05
2023-05-14T09:20:15.877Z,148.94
2023-05-14T09:21:15.881Z,147.38
2023-05-14T09:22:15.877Z,146.54
2023-05-14T09:23:15.913Z,142.37
2023-05-14T09:24:15.884Z,142.19
2023-05-14T09:25:15.898Z,144.34
2023-05-14T09:26:15.919Z,142.72
2023-05-14T09:27:15.912Z,145.91
2023-05-14T09:28:15.889Z,146.00
2023-05-14T09:29:15.904Z,148.02
2023-05-14T09:30:15.939Z,148.23
2023-05-14T09:31:15.935Z,149.54
2023-05-14T09:32:15.926Z,151.01
2023-05-14T09:33:15.945Z,149.41
2023-05-14T09:34:15.937Z,150.58
2023-05-14T09:35:15.941Z,143.95
2023-05-14T09:36:15.895Z,143.43
2023-05-14T09:37:15.916Z,144.27
2023-05-14T09:38:15.960Z,145.95
2023-05-14T09:39:15.915Z,145.35
2023-05-14T09:40:15.904Z,147.04
2023-05-14T09:41:15.924Z,147.31
2023-05-14T09:42:15.929Z,145.41
2023-05-14T09:43:15.914Z,143.48
2023-05-14T09:44:15.913Z,139.12
2023-05-14T09:45:15.908Z,140.50
2023-05-14T09:46:15.915Z,135.95
2023-05-14T09:47:15.950Z,133.16
2023-05-14T09:48:15.923Z,132.16
2023-05-14T09:49:15.910Z,131.67
2023-05-14T09:50:15.936Z,133.50
2023-05-14T09:51:15.897Z,135.28
2023-05-14T09:52:15.900Z,136.73
2023-05-14T09:53:15.894Z,135.18
2023-05-14T09:54:15.924Z,139.27
2023-05-14T09:55:15.913Z,140.84
2023-05-14T09:56:15.878Z,141.19
2023-05-14T09:57:15.877Z,140.20
2023-05-14T09:58:15.881Z,139.07
2023-05-14T09:59:15.867Z,140.18
2023-05-14T10:00:15.901Z,140.77
2023-05-14T10:01:15.895Z,139.63
2023-05-14T10:02:15.886Z,134.86
2023-05-14T10:03:17.987Z,134.24
2023-05-14T10:04:15.866Z,136.57
2023-05-14T10:05:15.860Z,137.49
2023-05-14T10:06:15.793Z,131.41
2023-05-14T10:07:15.787Z,127.87
2023-05-14T10:08:15.759Z,127.75
2023-05-14T10:09:15.768Z,129.70
2023-05-14T10:10:15.756Z,130.70
2023-05-14T10:11:15.720Z,130.29
2023-05-14T10:12:15.682Z,131.04
2023-05-14T10:13:15.662Z,127.18
2023-05-14T10:14:15.621Z,130.15
2023-05-14T10:15:15.640Z,131.36
2023-05-14T10:16:15.613Z,125.99
2023-05-14T10:17:15.604Z,123.89
2023-05-14T10:18:15.602Z,124.91
2023-05-14T10:19:15.557Z,126.67
2023-05-14T10:20:15.544Z,129.60
2023-05-14T10:21:15.516Z,128.61
2023-05-14T10:22:15.468Z,120.64
2023-05-14T10:23:15.444Z,120.55
2023-05-14T10:24:15.438Z,120.65
2023-05-14T10:25:15.418Z,117.93
2023-05-14T10:26:15.354Z,112.77
2023-05-14T10:27:15.388Z,111.79
2023-05-14T10:28:15.346Z,110.87
2023-05-14T10:29:15.302Z,113.39
2023-05-14T10:30:15.321Z,109.88
2023-05-14T10:31:15.279Z,109.58
2023-05-14T10:32:15.225Z,106.80
2023-05-14T10:33:15.314Z,109.01
2023-05-14T10:34:15.189Z,104.74
2023-05-14T10:35:15.192Z,98.77
2023-05-14T10:36:15.136Z,101.17
2023-05-14T10:37:15.135Z,101.71
2023-05-14T10:38:15.113Z,101.14
2023-05-14T10:39:15.075Z,100.05
2023-05-14T10:40:15.086Z,97.19
2023-05-14T10:41:15.030Z,101.56
2023-05-14T10:42:15.022Z,106.70
2023-05-14T10:43:15.008Z,102.58
2023-05-14T10:44:14.995Z,98.72
2023-05-14T10:45:14.931Z,102.87
2023-05-14T10:46:15.000Z,104.83
2023-05-14T10:47:14.934Z,107.95
2023-05-14T10:48:14.930Z,109.96
2023-05-14T10:49:14.860Z,109.91
2023-05-14T10:50:14.839Z,113.15
2023-05-14T10:51:14.841Z,115.28
2023-05-14T10:52:14.807Z,113.01
2023-05-14T10:53:14.791Z,112.11
2023-05-14T10:54:14.769Z,110.10
2023-05-14T10:55:14.748Z,106.66
2023-05-14T10:56:14.737Z,100.61
2023-05-14T10:57:14.684Z,103.80
2023-05-14T10:58:14.710Z,104.64
2023-05-14T10:59:14.672Z,108.54
2023-05-14T11:00:14.743Z,111.89
2023-05-14T11:01:14.629Z,111.14
2023-05-14T11:02:14.700Z,114.81
2023-05-14T11:03:14.655Z,114.48
2023-05-14T11:04:14.597Z,113.16
2023-05-14T11:05:14.573Z,106.02
2023-05-14T11:06:14.514Z,109.19
2023-05-14T11:07:14.529Z,109.13
2023-05-14T11:08:14.520Z,110.91
2023-05-14T11:09:14.525Z,110.17
2023-05-14T11:10:14.459Z,108.06
2023-05-14T11:11:14.463Z,107.26
2023-05-14T11:12:14.453Z,103.46
2023-05-14T11:13:14.413Z,108.47
2023-05-14T11:14:14.359Z,109.76
2023-05-14T11:15:14.364Z,112.20
2023-05-14T11:16:22.581Z,112.52
2023-05-14T11:17:15.490Z,112.71
2023-05-14T11:18:14.299Z,113.28
2023-05-14T11:19:14.316Z,114.03
2023-05-14T11:20:14.254Z,113.99
2023-05-14T11:21:14.230Z,112.92
2023-05-14T11:22:14.261Z,114.01
2023-05-14T11:23:14.178Z,111.17
2023-05-14T11:24:14.145Z,114.70
2023-05-14T11:25:14.109Z,113.28
2023-05-14T11:26:14.159Z,111.90
2023-05-14T11:27:14.052Z,113.68
2023-05-14T11:28:14.031Z,114.44
2023-05-14T11:29:14.040Z,109.23
2023-05-14T11:30:13.992Z,108.09
2023-05-14T11:31:14.013Z,110.71
2023-05-14T11:32:13.976Z,107.88
2023-05-14T11:33:13.964Z,110.70
2023-05-14T11:34:13.916Z,109.14
2023-05-14T11:35:13.933Z,110.14
2023-05-14T11:36:13.874Z,114.92
2023-05-14T11:37:13.876Z,116.60
2023-05-14T11:38:13.876Z,120.24
2023-05-14T11:39:13.869Z,119.05
2023-05-14T11:40:13.888Z,119.61
2023-05-14T11:41:13.873Z,115.03
2023-05-14T11:42:13.848Z,116.54
2023-05-14T11:43:13.861Z,114.33
2023-05-14T11:44:13.867Z,110.33
2023-05-14T11:45:13.875Z,111.50
2023-05-14T11:46:13.942Z,112.45
2023-05-14T11:47:13.845Z,112.61
2023-05-14T11:48:13.964Z,115.88
2023-05-14T11:49:13.932Z,110.75
2023-05-14T11:50:13.867Z,114.51
2023-05-14T11:51:13.905Z,113.50
2023-05-14T11:52:13.858Z,107.12
2023-05-14T11:53:13.939Z,99.42
2023-05-14T11:54:13.886Z,95.47
2023-05-14T11:55:13.907Z,99.66
2023-05-14T11:56:13.871Z,101.95
2023-05-14T11:57:13.874Z,103.07
2023-05-14T11:58:13.865Z,106.08
2023-05-14T11:59:13.887Z,106.66
2023-05-14T12:00:13.868Z,111.14
2023-05-14T12:01:13.845Z,117.43
2023-05-14T12:02:13.868Z,122.53
2023-05-14T12:03:13.946Z,126.71
2023-05-14T12:04:13.887Z,124.64
2023-05-14T12:05:13.835Z,128.54
2023-05-14T12:06:13.853Z,127.84
2023-05-14T12:07:13.872Z,121.73
2023-05-14T12:08:13.856Z,120.88
2023-05-14T12:09:13.830Z,123.85
2023-05-14T12:10:13.816Z,122.96
2023-05-14T12:11:13.819Z,120.73
2023-05-14T12:12:13.799Z,119.58
2023-05-14T12:13:13.829Z,119.67
2023-05-14T12:14:13.830Z,122.33
2023-05-14T12:15:13.851Z,122.12
2023-05-14T12:16:13.846Z,122.00
2023-05-14T12:17:13.825Z,120.17
2023-05-14T12:18:23.803Z,119.73
2023-05-14T12:19:14.808Z,119.80
2023-05-14T12:20:13.778Z,113.76
2023-05-14T12:21:13.719Z,113.14
2023-05-14T12:22:13.716Z,116.58
2023-05-14T12:23:13.715Z,120.59
2023-05-14T12:24:13.659Z,122.92
2023-05-14T12:25:13.808Z,121.44
2023-05-14T12:26:13.644Z,124.50
2023-05-14T12:27:13.633Z,124.58
2023-05-14T12:28:13.573Z,125.39